KBED/BED METAR and TAF weather

Enter ICAO airport designator
Station Type Date Time Source
KBED METAR 2018/01/17 05:56 UTC NOAA

KBED 170556Z AUTO 14004KT 10SM BKN032 OVC070 M01/M03 A3037 RMK AO2 SLP300 T10061028 10000 21006 58015


Station Type Date Time Source
KBED Decoded METAR 2018/01/17 05:56 UTC NOAA

BEDFORD HANSCOM FIELD, MA, United States (KBED) 42-28N 071-18W 50M
Jan 17, 2018 - 12:56 AM EST / 2018.01.17 0556 UTC
Wind: from the SE (140 degrees) at 5 MPH (4 KT):0
Visibility: 10 mile(s):0
Sky conditions: overcast
Temperature: 30.9 F (-0.6 C)
Windchill: 26 F (-3 C):1
Dew Point: 27.0 F (-2.8 C)
Relative Humidity: 85%
Pressure (altimeter): 30.37 in. Hg (1028 hPa)
Pressure tendency: 0.04 inches (1.5 hPa) lower than three hours ago
ob: KBED 170556Z AUTO 14004KT 10SM BKN032 OVC070 M01/M03 A3037 RMK AO2 SLP300 T10061028 10000 21006 58015
cycle: 6

Station Type Date Time Source
KBED TAF 2018/01/17 06:48 UTC NOAA

TAF
AMD KBED 170546Z 1706/1806 00000KT P6SM BKN035 OVC070
FM171000 00000KT 4SM -SN BR OVC015
FM171200 00000KT 1/2SM SN FG OVC008
FM171700 VRB03KT 1SM -SN BR OVC008
FM171900 33004KT 4SM -SN OVC010
FM172200 31005KT P6SM BKN025
FM180200 30010KT P6SM BKN060


Example: see airport list